sensor_id;sensor_type;location;lat;lon;timestamp;temperature;humidity
23411;DHT22;11878;51.774;7.220;2022-12-29T00:01:30;9.80;99.90
23411;DHT22;11878;51.774;7.220;2022-12-29T00:04:32;9.80;99.90
23411;DHT22;11878;51.774;7.220;2022-12-29T00:07:34;9.80;99.90
23411;DHT22;11878;51.774;7.220;2022-12-29T00:10:36;9.80;99.90
23411;DHT22;11878;51.774;7.220;2022-12-29T00:13:38;9.90;99.90
23411;DHT22;11878;51.774;7.220;2022-12-29T00:16:58;9.80;99.90
23411;DHT22;11878;51.774;7.220;2022-12-29T00:20:00;9.90;99.90
23411;DHT22;11878;51.774;7.220;2022-12-29T00:23:20;10.00;99.90
23411;DHT22;11878;51.774;7.220;2022-12-29T00:26:41;10.00;99.90
23411;DHT22;11878;51.774;7.220;2022-12-29T00:30:11;10.00;99.90
23411;DHT22;11878;51.774;7.220;2022-12-29T00:33:33;10.00;99.90
23411;DHT22;11878;51.774;7.220;2022-12-29T00:36:53;10.00;99.90
23411;DHT22;11878;51.774;7.220;2022-12-29T00:39:55;10.00;99.90
23411;DHT22;11878;51.774;7.220;2022-12-29T00:43:15;10.00;99.90
23411;DHT22;11878;51.774;7.220;2022-12-29T00:46:37;10.00;99.90
23411;DHT22;11878;51.774;7.220;2022-12-29T00:49:39;9.90;99.90
23411;DHT22;11878;51.774;7.220;2022-12-29T00:52:41;9.90;99.90
23411;DHT22;11878;51.774;7.220;2022-12-29T00:55:44;9.80;99.90
23411;DHT22;11878;51.774;7.220;2022-12-29T00:58:46;9.80;99.90
23411;DHT22;11878;51.774;7.220;2022-12-29T01:01:48;9.80;99.90
23411;DHT22;11878;51.774;7.220;2022-12-29T01:04:50;9.80;99.90
23411;DHT22;11878;51.774;7.220;2022-12-29T01:07:52;9.90;99.90
23411;DHT22;11878;51.774;7.220;2022-12-29T01:11:10;9.80;99.90
23411;DHT22;11878;51.774;7.220;2022-12-29T01:14:13;9.80;99.90
23411;DHT22;11878;51.774;7.220;2022-12-29T01:17:15;9.90;99.90
23411;DHT22;11878;51.774;7.220;2022-12-29T01:20:17;9.90;99.90
23411;DHT22;11878;51.774;7.220;2022-12-29T01:23:19;9.90;99.90
23411;DHT22;11878;51.774;7.220;2022-12-29T01:26:21;9.80;99.90
23411;DHT22;11878;51.774;7.220;2022-12-29T01:29:22;9.90;99.90
23411;DHT22;11878;51.774;7.220;2022-12-29T01:32:24;9.90;99.90
23411;DHT22;11878;51.774;7.220;2022-12-29T01:35:26;9.90;99.90
23411;DHT22;11878;51.774;7.220;2022-12-29T01:38:28;9.90;99.90
23411;DHT22;11878;51.774;7.220;2022-12-29T01:41:30;9.90;99.90
23411;DHT22;11878;51.774;7.220;2022-12-29T01:47:59;10.00;99.90
23411;DHT22;11878;51.774;7.220;2022-12-29T01:51:02;10.00;99.90
23411;DHT22;11878;51.774;7.220;2022-12-29T01:54:08;9.90;99.90
23411;DHT22;11878;51.774;7.220;2022-12-29T01:57:16;9.90;99.90
23411;DHT22;11878;51.774;7.220;2022-12-29T02:00:19;10.00;99.90
23411;DHT22;11878;51.774;7.220;2022-12-29T02:03:22;10.10;99.90
23411;DHT22;11878;51.774;7.220;2022-12-29T02:06:29;10.10;99.90
23411;DHT22;11878;51.774;7.220;2022-12-29T02:09:33;10.10;99.90
23411;DHT22;11878;51.774;7.220;2022-12-29T02:12:35;10.10;99.90
23411;DHT22;11878;51.774;7.220;2022-12-29T02:29:23;10.40;99.90
23411;DHT22;11878;51.774;7.220;2022-12-29T02:32:37;10.40;99.90
23411;DHT22;11878;51.774;7.220;2022-12-29T02:36:06;10.40;99.90
23411;DHT22;11878;51.774;7.220;2022-12-29T02:39:20;10.40;99.90
23411;DHT22;11878;51.774;7.220;2022-12-29T02:42:49;10.50;99.90
23411;DHT22;11878;51.774;7.220;2022-12-29T02:45:59;10.50;99.90
23411;DHT22;11878;51.774;7.220;2022-12-29T02:49:28;10.60;99.90
23411;DHT22;11878;51.774;7.220;2022-12-29T02:52:38;10.60;99.90
23411;DHT22;11878;51.774;7.220;2022-12-29T02:59:05;10.70;99.90
23411;DHT22;11878;51.774;7.220;2022-12-29T03:05:57;10.70;99.90
23411;DHT22;11878;51.774;7.220;2022-12-29T03:12:35;10.80;99.90
23411;DHT22;11878;51.774;7.220;2022-12-29T03:16:11;11.00;99.90
23411;DHT22;11878;51.774;7.220;2022-12-29T03:19:30;10.80;99.90
23411;DHT22;11878;51.774;7.220;2022-12-29T03:22:38;11.00;99.90
23411;DHT22;11878;51.774;7.220;2022-12-29T03:25:48;10.90;99.90
23411;DHT22;11878;51.774;7.220;2022-12-29T03:28:55;11.00;99.90
23411;DHT22;11878;51.774;7.220;2022-12-29T03:32:04;11.00;99.90
23411;DHT22;11878;51.774;7.220;2022-12-29T03:35:11;11.00;99.90
23411;DHT22;11878;51.774;7.220;2022-12-29T03:38:19;10.90;99.90
23411;DHT22;11878;51.774;7.220;2022-12-29T03:41:26;10.90;99.90
23411;DHT22;11878;51.774;7.220;2022-12-29T03:44:39;10.90;99.90
23411;DHT22;11878;51.774;7.220;2022-12-29T03:47:42;10.80;99.90
23411;DHT22;11878;51.774;7.220;2022-12-29T03:50:46;10.80;99.90
23411;DHT22;11878;51.774;7.220;2022-12-29T03:53:48;10.80;99.90
23411;DHT22;11878;51.774;7.220;2022-12-29T03:56:49;10.70;99.90
23411;DHT22;11878;51.774;7.220;2022-12-29T03:59:58;10.60;99.90
23411;DHT22;11878;51.774;7.220;2022-12-29T04:03:00;10.60;99.90
23411;DHT22;11878;51.774;7.220;2022-12-29T04:06:02;10.60;99.90
23411;DHT22;11878;51.774;7.220;2022-12-29T04:09:12;10.50;99.90
23411;DHT22;11878;51.774;7.220;2022-12-29T04:12:18;10.40;99.90
23411;DHT22;11878;51.774;7.220;2022-12-29T04:15:21;10.30;99.90
23411;DHT22;11878;51.774;7.220;2022-12-29T04:18:23;10.20;99.90
23411;DHT22;11878;51.774;7.220;2022-12-29T04:21:25;10.20;99.90
23411;DHT22;11878;51.774;7.220;2022-12-29T04:24:27;10.10;99.90
23411;DHT22;11878;51.774;7.220;2022-12-29T04:27:29;10.10;99.90
23411;DHT22;11878;51.774;7.220;2022-12-29T04:31:04;10.00;99.90
23411;DHT22;11878;51.774;7.220;2022-12-29T04:34:13;10.00;99.90
23411;DHT22;11878;51.774;7.220;2022-12-29T04:37:15;10.00;99.90
23411;DHT22;11878;51.774;7.220;2022-12-29T04:40:16;9.90;99.90
23411;DHT22;11878;51.774;7.220;2022-12-29T04:43:18;9.90;99.90
23411;DHT22;11878;51.774;7.220;2022-12-29T04:46:53;9.90;99.90
23411;DHT22;11878;51.774;7.220;2022-12-29T04:50:15;9.90;99.90
23411;DHT22;11878;51.774;7.220;2022-12-29T04:53:26;9.90;99.90
23411;DHT22;11878;51.774;7.220;2022-12-29T04:56:28;9.90;99.90
23411;DHT22;11878;51.774;7.220;2022-12-29T04:59:30;9.80;99.90
23411;DHT22;11878;51.774;7.220;2022-12-29T05:02:33;9.60;99.90
23411;DHT22;11878;51.774;7.220;2022-12-29T05:05:35;9.40;99.90
23411;DHT22;11878;51.774;7.220;2022-12-29T05:08:37;9.30;99.90
23411;DHT22;11878;51.774;7.220;2022-12-29T05:11:39;9.20;99.90
23411;DHT22;11878;51.774;7.220;2022-12-29T05:14:43;9.20;99.90
23411;DHT22;11878;51.774;7.220;2022-12-29T05:17:45;9.10;99.90
23411;DHT22;11878;51.774;7.220;2022-12-29T05:20:48;9.10;99.90
23411;DHT22;11878;51.774;7.220;2022-12-29T05:23:51;9.10;99.90
23411;DHT22;11878;51.774;7.220;2022-12-29T05:26:53;9.10;99.90
23411;DHT22;11878;51.774;7.220;2022-12-29T05:30:17;9.10;99.90
23411;DHT22;11878;51.774;7.220;2022-12-29T05:33:19;9.10;99.90
23411;DHT22;11878;51.774;7.220;2022-12-29T05:36:23;9.10;99.90
23411;DHT22;11878;51.774;7.220;2022-12-29T05:39:29;9.00;99.90
23411;DHT22;11878;51.774;7.220;2022-12-29T05:42:34;9.00;99.90
23411;DHT22;11878;51.774;7.220;2022-12-29T05:45:59;9.00;99.90
23411;DHT22;11878;51.774;7.220;2022-12-29T05:49:27;9.10;99.90
23411;DHT22;11878;51.774;7.220;2022-12-29T05:52:32;9.10;99.90
23411;DHT22;11878;51.774;7.220;2022-12-29T05:55:34;9.00;99.90
23411;DHT22;11878;51.774;7.220;2022-12-29T05:58:36;9.00;99.90
23411;DHT22;11878;51.774;7.220;2022-12-29T06:01:38;9.00;99.90
23411;DHT22;11878;51.774;7.220;2022-12-29T06:04:40;8.90;99.90
23411;DHT22;11878;51.774;7.220;2022-12-29T06:07:42;8.80;99.90
23411;DHT22;11878;51.774;7.220;2022-12-29T06:10:44;8.90;99.90
23411;DHT22;11878;51.774;7.220;2022-12-29T06:13:46;8.90;99.90
23411;DHT22;11878;51.774;7.220;2022-12-29T06:16:48;8.80;99.90
23411;DHT22;11878;51.774;7.220;2022-12-29T06:19:51;8.90;99.90
23411;DHT22;11878;51.774;7.220;2022-12-29T06:22:54;8.90;99.90
23411;DHT22;11878;51.774;7.220;2022-12-29T06:25:57;8.80;99.90
23411;DHT22;11878;51.774;7.220;2022-12-29T06:28:59;8.80;99.90
23411;DHT22;11878;51.774;7.220;2022-12-29T06:32:00;8.80;99.90
23411;DHT22;11878;51.774;7.220;2022-12-29T06:35:05;8.80;99.90
23411;DHT22;11878;51.774;7.220;2022-12-29T06:38:12;8.90;99.90
23411;DHT22;11878;51.774;7.220;2022-12-29T06:41:14;8.90;99.90
23411;DHT22;11878;51.774;7.220;2022-12-29T06:44:54;8.80;99.90
23411;DHT22;11878;51.774;7.220;2022-12-29T06:47:58;9.00;99.90
23411;DHT22;11878;51.774;7.220;2022-12-29T06:51:00;9.00;99.90
23411;DHT22;11878;51.774;7.220;2022-12-29T06:54:01;8.90;99.90
23411;DHT22;11878;51.774;7.220;2022-12-29T06:57:03;8.90;99.90
23411;DHT22;11878;51.774;7.220;2022-12-29T07:00:05;8.90;99.90
23411;DHT22;11878;51.774;7.220;2022-12-29T07:03:07;8.80;99.90
23411;DHT22;11878;51.774;7.220;2022-12-29T07:06:09;8.80;99.90
23411;DHT22;11878;51.774;7.220;2022-12-29T07:09:11;8.80;99.90
23411;DHT22;11878;51.774;7.220;2022-12-29T07:12:13;8.80;99.90
23411;DHT22;11878;51.774;7.220;2022-12-29T07:15:14;8.80;99.90
23411;DHT22;11878;51.774;7.220;2022-12-29T07:18:17;8.80;99.90
23411;DHT22;11878;51.774;7.220;2022-12-29T07:21:18;8.90;99.90
23411;DHT22;11878;51.774;7.220;2022-12-29T07:24:20;8.90;99.90
23411;DHT22;11878;51.774;7.220;2022-12-29T07:27:22;8.90;99.90
23411;DHT22;11878;51.774;7.220;2022-12-29T07:30:24;8.80;99.90
23411;DHT22;11878;51.774;7.220;2022-12-29T07:33:28;8.90;99.90
23411;DHT22;11878;51.774;7.220;2022-12-29T07:36:30;8.90;99.90
23411;DHT22;11878;51.774;7.220;2022-12-29T07:39:35;9.00;99.90
23411;DHT22;11878;51.774;7.220;2022-12-29T07:42:37;8.90;99.90
23411;DHT22;11878;51.774;7.220;2022-12-29T07:45:42;9.00;99.90
23411;DHT22;11878;51.774;7.220;2022-12-29T07:48:43;9.10;99.90
23411;DHT22;11878;51.774;7.220;2022-12-29T07:51:45;9.10;99.90
23411;DHT22;11878;51.774;7.220;2022-12-29T07:54:47;9.10;99.90
23411;DHT22;11878;51.774;7.220;2022-12-29T07:57:49;9.20;99.90
23411;DHT22;11878;51.774;7.220;2022-12-29T08:00:54;9.20;99.90
23411;DHT22;11878;51.774;7.220;2022-12-29T08:03:57;9.20;99.90
23411;DHT22;11878;51.774;7.220;2022-12-29T08:06:58;9.20;99.90
23411;DHT22;11878;51.774;7.220;2022-12-29T08:10:01;9.30;99.90
23411;DHT22;11878;51.774;7.220;2022-12-29T08:13:03;9.20;99.90
23411;DHT22;11878;51.774;7.220;2022-12-29T08:16:05;9.30;99.90
23411;DHT22;11878;51.774;7.220;2022-12-29T08:19:07;9.40;99.90
23411;DHT22;11878;51.774;7.220;2022-12-29T08:22:09;9.70;99.90
23411;DHT22;11878;51.774;7.220;2022-12-29T08:25:10;9.50;99.90
23411;DHT22;11878;51.774;7.220;2022-12-29T08:28:12;9.50;99.90
23411;DHT22;11878;51.774;7.220;2022-12-29T08:31:14;9.50;99.90
23411;DHT22;11878;51.774;7.220;2022-12-29T08:34:16;9.60;99.90
23411;DHT22;11878;51.774;7.220;2022-12-29T08:37:17;9.50;99.90
23411;DHT22;11878;51.774;7.220;2022-12-29T08:40:19;9.60;99.90
23411;DHT22;11878;51.774;7.220;2022-12-29T08:43:21;9.50;99.90
23411;DHT22;11878;51.774;7.220;2022-12-29T08:46:23;9.70;99.90
23411;DHT22;11878;51.774;7.220;2022-12-29T08:49:25;9.70;99.90
23411;DHT22;11878;51.774;7.220;2022-12-29T08:52:27;9.70;99.90
23411;DHT22;11878;51.774;7.220;2022-12-29T08:55:29;9.80;99.90
23411;DHT22;11878;51.774;7.220;2022-12-29T08:58:31;9.70;99.90
23411;DHT22;11878;51.774;7.220;2022-12-29T09:01:33;9.70;99.90
23411;DHT22;11878;51.774;7.220;2022-12-29T09:04:37;9.70;99.90
23411;DHT22;11878;51.774;7.220;2022-12-29T09:07:40;9.60;99.90
23411;DHT22;11878;51.774;7.220;2022-12-29T09:10:42;9.50;99.90
23411;DHT22;11878;51.774;7.220;2022-12-29T09:13:44;9.50;99.90
23411;DHT22;11878;51.774;7.220;2022-12-29T09:16:46;9.60;99.90
23411;DHT22;11878;51.774;7.220;2022-12-29T09:20:06;9.80;99.90
23411;DHT22;11878;51.774;7.220;2022-12-29T09:23:08;9.80;99.90
23411;DHT22;11878;51.774;7.220;2022-12-29T09:26:10;9.90;99.90
23411;DHT22;11878;51.774;7.220;2022-12-29T09:29:12;9.90;99.90
23411;DHT22;11878;51.774;7.220;2022-12-29T09:32:13;9.90;99.90
23411;DHT22;11878;51.774;7.220;2022-12-29T09:35:19;10.00;99.90
23411;DHT22;11878;51.774;7.220;2022-12-29T09:38:22;10.00;99.90
23411;DHT22;11878;51.774;7.220;2022-12-29T09:41:34;10.10;99.90
23411;DHT22;11878;51.774;7.220;2022-12-29T09:47:41;10.20;99.90
23411;DHT22;11878;51.774;7.220;2022-12-29T09:50:48;10.30;99.90
23411;DHT22;11878;51.774;7.220;2022-12-29T09:54:00;10.30;99.90
23411;DHT22;11878;51.774;7.220;2022-12-29T09:57:10;10.40;99.90
23411;DHT22;11878;51.774;7.220;2022-12-29T10:00:22;10.50;99.90
23411;DHT22;11878;51.774;7.220;2022-12-29T10:03:27;10.50;99.90
23411;DHT22;11878;51.774;7.220;2022-12-29T10:06:39;10.60;99.90
23411;DHT22;11878;51.774;7.220;2022-12-29T10:10:18;10.50;99.90
23411;DHT22;11878;51.774;7.220;2022-12-29T10:13:26;10.50;99.90
23411;DHT22;11878;51.774;7.220;2022-12-29T10:23:26;10.60;99.90
23411;DHT22;11878;51.774;7.220;2022-12-29T10:26:32;10.60;99.90
23411;DHT22;11878;51.774;7.220;2022-12-29T10:29:39;10.60;99.90
23411;DHT22;11878;51.774;7.220;2022-12-29T10:32:47;10.50;99.90
23411;DHT22;11878;51.774;7.220;2022-12-29T10:35:51;10.60;99.90
23411;DHT22;11878;51.774;7.220;2022-12-29T10:39:31;10.50;99.90
23411;DHT22;11878;51.774;7.220;2022-12-29T10:42:40;10.60;99.90
23411;DHT22;11878;51.774;7.220;2022-12-29T10:45:44;10.60;99.90
23411;DHT22;11878;51.774;7.220;2022-12-29T10:48:46;10.80;99.90
23411;DHT22;11878;51.774;7.220;2022-12-29T10:51:50;10.70;99.90
23411;DHT22;11878;51.774;7.220;2022-12-29T10:55:15;10.70;99.90
23411;DHT22;11878;51.774;7.220;2022-12-29T10:58:18;10.80;99.90
23411;DHT22;11878;51.774;7.220;2022-12-29T11:01:21;10.80;99.90
23411;DHT22;11878;51.774;7.220;2022-12-29T11:07:35;10.90;99.90
23411;DHT22;11878;51.774;7.220;2022-12-29T11:10:40;10.90;99.90
23411;DHT22;11878;51.774;7.220;2022-12-29T11:13:50;10.90;99.90
23411;DHT22;11878;51.774;7.220;2022-12-29T11:17:04;11.00;99.90
23411;DHT22;11878;51.774;7.220;2022-12-29T11:20:32;11.00;99.90
23411;DHT22;11878;51.774;7.220;2022-12-29T11:23:37;11.00;99.90
23411;DHT22;11878;51.774;7.220;2022-12-29T11:26:39;11.00;99.90
23411;DHT22;11878;51.774;7.220;2022-12-29T11:29:43;11.10;99.90
23411;DHT22;11878;51.774;7.220;2022-12-29T11:32:54;11.10;99.90
23411;DHT22;11878;51.774;7.220;2022-12-29T11:36:13;11.00;99.90
23411;DHT22;11878;51.774;7.220;2022-12-29T11:39:41;11.10;99.90
23411;DHT22;11878;51.774;7.220;2022-12-29T11:42:51;11.10;99.90
23411;DHT22;11878;51.774;7.220;2022-12-29T11:45:54;11.00;99.90
23411;DHT22;11878;51.774;7.220;2022-12-29T11:51:23;11.10;99.90
23411;DHT22;11878;51.774;7.220;2022-12-29T11:54:33;10.80;99.90
23411;DHT22;11878;51.774;7.220;2022-12-29T11:57:36;10.70;99.90
23411;DHT22;11878;51.774;7.220;2022-12-29T12:00:38;10.70;99.90
23411;DHT22;11878;51.774;7.220;2022-12-29T12:03:57;10.80;99.90
23411;DHT22;11878;51.774;7.220;2022-12-29T12:07:13;10.80;99.90
23411;DHT22;11878;51.774;7.220;2022-12-29T12:13:58;10.80;99.90
23411;DHT22;11878;51.774;7.220;2022-12-29T12:17:18;10.80;99.90
23411;DHT22;11878;51.774;7.220;2022-12-29T12:20:26;10.80;99.90
23411;DHT22;11878;51.774;7.220;2022-12-29T12:23:40;10.80;99.90
23411;DHT22;11878;51.774;7.220;2022-12-29T12:26:54;10.80;99.90
23411;DHT22;11878;51.774;7.220;2022-12-29T12:30:11;10.80;99.90
23411;DHT22;11878;51.774;7.220;2022-12-29T12:33:37;10.70;99.90
23411;DHT22;11878;51.774;7.220;2022-12-29T12:40:34;10.60;99.90
23411;DHT22;11878;51.774;7.220;2022-12-29T13:06:50;10.60;99.90
23411;DHT22;11878;51.774;7.220;2022-12-29T13:10:05;10.60;99.90
23411;DHT22;11878;51.774;7.220;2022-12-29T13:17:13;10.40;99.90
23411;DHT22;11878;51.774;7.220;2022-12-29T13:20:46;10.40;99.90
23411;DHT22;11878;51.774;7.220;2022-12-29T13:24:02;10.20;99.90
23411;DHT22;11878;51.774;7.220;2022-12-29T13:30:20;10.00;99.90
23411;DHT22;11878;51.774;7.220;2022-12-29T13:33:39;10.00;99.90
23411;DHT22;11878;51.774;7.220;2022-12-29T13:36:54;10.00;99.90
23411;DHT22;11878;51.774;7.220;2022-12-29T13:40:01;10.10;99.90
23411;DHT22;11878;51.774;7.220;2022-12-29T13:43:03;10.10;99.90
23411;DHT22;11878;51.774;7.220;2022-12-29T13:46:10;10.10;99.90
23411;DHT22;11878;51.774;7.220;2022-12-29T13:49:23;10.20;99.90
23411;DHT22;11878;51.774;7.220;2022-12-29T13:55:54;10.30;99.90
23411;DHT22;11878;51.774;7.220;2022-12-29T14:05:45;10.30;99.90
23411;DHT22;11878;51.774;7.220;2022-12-29T14:09:05;10.40;99.90
23411;DHT22;11878;51.774;7.220;2022-12-29T14:12:30;10.40;99.90
23411;DHT22;11878;51.774;7.220;2022-12-29T14:15:37;10.50;99.90
23411;DHT22;11878;51.774;7.220;2022-12-29T14:18:43;10.60;99.90
23411;DHT22;11878;51.774;7.220;2022-12-29T14:21:55;10.60;99.90
23411;DHT22;11878;51.774;7.220;2022-12-29T14:24:57;10.50;99.90
23411;DHT22;11878;51.774;7.220;2022-12-29T14:28:15;10.60;99.90
23411;DHT22;11878;51.774;7.220;2022-12-29T14:34:29;10.50;99.90
23411;DHT22;11878;51.774;7.220;2022-12-29T14:37:33;10.50;99.90
23411;DHT22;11878;51.774;7.220;2022-12-29T14:40:35;10.40;99.90
23411;DHT22;11878;51.774;7.220;2022-12-29T14:43:37;10.40;99.90
23411;DHT22;11878;51.774;7.220;2022-12-29T14:50:39;10.40;99.90
23411;DHT22;11878;51.774;7.220;2022-12-29T14:53:45;10.40;99.90
23411;DHT22;11878;51.774;7.220;2022-12-29T14:56:48;10.40;99.90
23411;DHT22;11878;51.774;7.220;2022-12-29T14:59:54;10.30;99.90
23411;DHT22;11878;51.774;7.220;2022-12-29T15:06:28;10.30;99.90
23411;DHT22;11878;51.774;7.220;2022-12-29T15:09:34;10.20;99.90
23411;DHT22;11878;51.774;7.220;2022-12-29T15:12:51;10.20;99.90
23411;DHT22;11878;51.774;7.220;2022-12-29T15:15:54;10.20;99.90
23411;DHT22;11878;51.774;7.220;2022-12-29T15:18:56;10.20;99.90
23411;DHT22;11878;51.774;7.220;2022-12-29T15:21:58;10.10;99.90
23411;DHT22;11878;51.774;7.220;2022-12-29T15:25:00;10.20;99.90
23411;DHT22;11878;51.774;7.220;2022-12-29T15:28:06;10.10;99.90
23411;DHT22;11878;51.774;7.220;2022-12-29T15:34:31;10.00;99.90
23411;DHT22;11878;51.774;7.220;2022-12-29T15:37:35;10.00;99.90
23411;DHT22;11878;51.774;7.220;2022-12-29T15:40:39;9.90;99.90
23411;DHT22;11878;51.774;7.220;2022-12-29T15:44:02;9.80;99.90
23411;DHT22;11878;51.774;7.220;2022-12-29T15:47:21;9.70;99.90
23411;DHT22;11878;51.774;7.220;2022-12-29T15:50:27;9.50;99.90
23411;DHT22;11878;51.774;7.220;2022-12-29T15:53:31;9.50;99.90
23411;DHT22;11878;51.774;7.220;2022-12-29T15:56:33;9.40;99.90
23411;DHT22;11878;51.774;7.220;2022-12-29T15:59:35;9.30;99.90
23411;DHT22;11878;51.774;7.220;2022-12-29T16:02:37;9.10;99.90
23411;DHT22;11878;51.774;7.220;2022-12-29T16:05:39;9.10;99.90
23411;DHT22;11878;51.774;7.220;2022-12-29T16:08:41;9.10;99.90
23411;DHT22;11878;51.774;7.220;2022-12-29T16:11:52;9.10;99.90
23411;DHT22;11878;51.774;7.220;2022-12-29T16:14:56;9.00;99.90
23411;DHT22;11878;51.774;7.220;2022-12-29T16:17:59;9.10;99.90
23411;DHT22;11878;51.774;7.220;2022-12-29T16:21:02;9.20;99.90
23411;DHT22;11878;51.774;7.220;2022-12-29T16:24:09;9.20;99.90
23411;DHT22;11878;51.774;7.220;2022-12-29T16:27:21;9.40;99.90
23411;DHT22;11878;51.774;7.220;2022-12-29T16:37:35;9.40;99.90
23411;DHT22;11878;51.774;7.220;2022-12-29T16:40:54;9.40;99.90
23411;DHT22;11878;51.774;7.220;2022-12-29T16:44:20;9.40;99.90
23411;DHT22;11878;51.774;7.220;2022-12-29T16:47:22;9.40;99.90
23411;DHT22;11878;51.774;7.220;2022-12-29T16:50:26;9.50;99.90
23411;DHT22;11878;51.774;7.220;2022-12-29T16:53:38;9.50;99.90
23411;DHT22;11878;51.774;7.220;2022-12-29T16:56:43;9.50;99.90
23411;DHT22;11878;51.774;7.220;2022-12-29T16:59:45;9.30;99.90
23411;DHT22;11878;51.774;7.220;2022-12-29T17:02:49;9.20;99.90
23411;DHT22;11878;51.774;7.220;2022-12-29T17:05:51;9.00;99.90
23411;DHT22;11878;51.774;7.220;2022-12-29T17:08:58;8.90;99.90
23411;DHT22;11878;51.774;7.220;2022-12-29T17:12:01;8.80;99.90
23411;DHT22;11878;51.774;7.220;2022-12-29T17:18:14;8.80;99.90
23411;DHT22;11878;51.774;7.220;2022-12-29T17:21:16;8.70;99.90
23411;DHT22;11878;51.774;7.220;2022-12-29T17:24:19;8.70;99.90
23411;DHT22;11878;51.774;7.220;2022-12-29T17:30:32;8.60;99.90
23411;DHT22;11878;51.774;7.220;2022-12-29T17:33:37;8.50;99.90
23411;DHT22;11878;51.774;7.220;2022-12-29T17:36:39;8.50;99.90
23411;DHT22;11878;51.774;7.220;2022-12-29T17:39:41;8.50;99.90
23411;DHT22;11878;51.774;7.220;2022-12-29T17:42:45;8.50;99.90
23411;DHT22;11878;51.774;7.220;2022-12-29T17:45:51;8.50;99.90
23411;DHT22;11878;51.774;7.220;2022-12-29T17:49:12;8.40;99.90
23411;DHT22;11878;51.774;7.220;2022-12-29T17:52:33;8.60;99.90
23411;DHT22;11878;51.774;7.220;2022-12-29T17:55:42;8.30;99.90
23411;DHT22;11878;51.774;7.220;2022-12-29T17:58:47;8.10;99.90
23411;DHT22;11878;51.774;7.220;2022-12-29T18:02:00;8.80;99.90
23411;DHT22;11878;51.774;7.220;2022-12-29T18:05:34;8.00;99.90
23411;DHT22;11878;51.774;7.220;2022-12-29T18:09:18;8.00;99.90
23411;DHT22;11878;51.774;7.220;2022-12-29T18:12:48;8.40;99.90
23411;DHT22;11878;51.774;7.220;2022-12-29T18:19:17;7.90;99.90
23411;DHT22;11878;51.774;7.220;2022-12-29T18:22:29;7.70;99.90
23411;DHT22;11878;51.774;7.220;2022-12-29T18:25:43;7.70;99.90
23411;DHT22;11878;51.774;7.220;2022-12-29T18:29:28;7.80;99.90
23411;DHT22;11878;51.774;7.220;2022-12-29T18:32:35;7.90;99.90
23411;DHT22;11878;51.774;7.220;2022-12-29T18:35:48;8.50;99.90
23411;DHT22;11878;51.774;7.220;2022-12-29T18:39:01;7.90;99.90
23411;DHT22;11878;51.774;7.220;2022-12-29T18:42:15;7.80;99.90
23411;DHT22;11878;51.774;7.220;2022-12-29T18:45:21;7.80;99.90
23411;DHT22;11878;51.774;7.220;2022-12-29T18:48:23;7.80;99.90
23411;DHT22;11878;51.774;7.220;2022-12-29T18:51:25;7.80;99.90
23411;DHT22;11878;51.774;7.220;2022-12-29T18:54:28;7.80;99.90
23411;DHT22;11878;51.774;7.220;2022-12-29T18:57:30;7.70;99.90
23411;DHT22;11878;51.774;7.220;2022-12-29T19:00:33;7.70;99.90
23411;DHT22;11878;51.774;7.220;2022-12-29T19:03:35;7.70;99.90
23411;DHT22;11878;51.774;7.220;2022-12-29T19:06:37;7.60;99.90
23411;DHT22;11878;51.774;7.220;2022-12-29T19:09:38;7.70;99.90
23411;DHT22;11878;51.774;7.220;2022-12-29T19:12:40;7.60;99.90
23411;DHT22;11878;51.774;7.220;2022-12-29T19:15:42;7.70;99.90
23411;DHT22;11878;51.774;7.220;2022-12-29T19:18:44;7.60;99.90
23411;DHT22;11878;51.774;7.220;2022-12-29T19:21:59;7.70;99.90
23411;DHT22;11878;51.774;7.220;2022-12-29T19:25:00;7.60;99.90
23411;DHT22;11878;51.774;7.220;2022-12-29T19:28:02;7.60;99.90
23411;DHT22;11878;51.774;7.220;2022-12-29T19:31:04;7.70;99.90
23411;DHT22;11878;51.774;7.220;2022-12-29T19:34:06;7.70;99.90
23411;DHT22;11878;51.774;7.220;2022-12-29T19:37:08;7.60;99.90
23411;DHT22;11878;51.774;7.220;2022-12-29T19:40:15;7.60;99.90
23411;DHT22;11878;51.774;7.220;2022-12-29T19:43:18;7.60;99.90
23411;DHT22;11878;51.774;7.220;2022-12-29T19:46:20;7.60;99.90
23411;DHT22;11878;51.774;7.220;2022-12-29T19:49:22;7.60;99.90
23411;DHT22;11878;51.774;7.220;2022-12-29T19:52:25;7.60;99.90
23411;DHT22;11878;51.774;7.220;2022-12-29T19:55:27;7.50;99.90
23411;DHT22;11878;51.774;7.220;2022-12-29T19:58:29;7.50;99.90
23411;DHT22;11878;51.774;7.220;2022-12-29T20:01:31;7.50;99.90
23411;DHT22;11878;51.774;7.220;2022-12-29T20:04:33;7.60;99.90
23411;DHT22;11878;51.774;7.220;2022-12-29T20:07:35;7.50;99.90
23411;DHT22;11878;51.774;7.220;2022-12-29T20:10:36;7.50;99.90
23411;DHT22;11878;51.774;7.220;2022-12-29T20:13:39;7.50;99.90
23411;DHT22;11878;51.774;7.220;2022-12-29T20:16:41;7.50;99.90
23411;DHT22;11878;51.774;7.220;2022-12-29T20:20:03;7.40;99.90
23411;DHT22;11878;51.774;7.220;2022-12-29T20:23:05;7.40;99.90
23411;DHT22;11878;51.774;7.220;2022-12-29T20:26:06;7.40;99.90
23411;DHT22;11878;51.774;7.220;2022-12-29T20:29:11;8.20;99.90
23411;DHT22;11878;51.774;7.220;2022-12-29T20:32:16;7.40;99.90
23411;DHT22;11878;51.774;7.220;2022-12-29T20:35:18;7.50;99.90
23411;DHT22;11878;51.774;7.220;2022-12-29T20:38:20;7.40;99.90
23411;DHT22;11878;51.774;7.220;2022-12-29T20:41:22;7.40;99.90
23411;DHT22;11878;51.774;7.220;2022-12-29T20:44:24;8.20;99.90
23411;DHT22;11878;51.774;7.220;2022-12-29T20:47:27;7.40;99.90
23411;DHT22;11878;51.774;7.220;2022-12-29T20:50:28;7.50;99.90
23411;DHT22;11878;51.774;7.220;2022-12-29T20:53:32;7.50;99.90
23411;DHT22;11878;51.774;7.220;2022-12-29T20:56:34;7.50;99.90
23411;DHT22;11878;51.774;7.220;2022-12-29T20:59:36;7.50;99.90
23411;DHT22;11878;51.774;7.220;2022-12-29T21:02:38;7.50;99.90
23411;DHT22;11878;51.774;7.220;2022-12-29T21:05:40;7.50;99.90
23411;DHT22;11878;51.774;7.220;2022-12-29T21:08:41;7.40;99.90
23411;DHT22;11878;51.774;7.220;2022-12-29T21:11:43;7.40;99.90
23411;DHT22;11878;51.774;7.220;2022-12-29T21:14:45;7.40;99.90
23411;DHT22;11878;51.774;7.220;2022-12-29T21:17:47;7.40;99.90
23411;DHT22;11878;51.774;7.220;2022-12-29T21:20:56;7.40;99.90
23411;DHT22;11878;51.774;7.220;2022-12-29T21:23:58;7.40;99.90
23411;DHT22;11878;51.774;7.220;2022-12-29T21:27:06;7.40;99.90
23411;DHT22;11878;51.774;7.220;2022-12-29T21:30:08;7.40;99.90
23411;DHT22;11878;51.774;7.220;2022-12-29T21:33:10;7.30;99.90
23411;DHT22;11878;51.774;7.220;2022-12-29T21:36:12;7.30;99.90
23411;DHT22;11878;51.774;7.220;2022-12-29T21:39:14;7.30;99.90
23411;DHT22;11878;51.774;7.220;2022-12-29T21:42:16;7.30;99.90
23411;DHT22;11878;51.774;7.220;2022-12-29T21:45:18;7.30;99.90
23411;DHT22;11878;51.774;7.220;2022-12-29T21:48:26;7.20;99.90
23411;DHT22;11878;51.774;7.220;2022-12-29T21:51:30;7.30;99.90
23411;DHT22;11878;51.774;7.220;2022-12-29T21:54:50;7.30;99.90